Time;durP1;ratioP1;P1;durP2;ratioP2;P2;SDS_P1;SDS_P2;PMS_P1;PMS_P2;Temp;Humidity;BMP_temperature;BMP_pressure;BME280_temperature;BME280_humidity;BME280_pressure;Samples;Min_cycle;Max_cycle;Signal;HPM_P1;HPM_P2
2023/06/18 00:01:38;;;;;;;6.93;4.30;;;;;;;;;;485231;29;970;-75
2023/06/18 00:02:09;;;;;;;7.80;4.40;;;;;;;;;;487321;29;1439;-75
2023/06/18 00:02:37;;;;;;;5.72;4.30;;;;;;;;;;492843;29;1073;-76
2023/06/18 00:02:55;;;;;;;4.30;3.90;;;;;;;;;;494249;29;1415;-75
2023/06/18 00:03:11;;;;;;;4.68;4.10;;;;;;;;;;494522;29;1097;-76
2023/06/18 00:03:27;;;;;;;4.95;4.30;;;;;;;;;;492528;29;1135;-75
2023/06/18 00:07:47;;;;;;;;;;;;;;;;;;;;;
2023/06/18 00:08:34;;;;;;;6.05;3.97;;;;;;;;;;495049;29;1079;-76
2023/06/18 00:08:56;;;;;;;4.57;4.10;;;;;;;;;;489876;29;1588;-76
2023/06/18 00:10:15;;;;;;;5.35;4.00;;;;;;;;;;491561;29;1281;-76
2023/06/18 00:11:05;;;;;;;4.22;3.80;;;;;;;;;;490463;29;1482;-76
2023/06/18 00:12:04;;;;;;;;;;;;;;;;;;;;;
2023/06/18 00:12:44;;;;;;;4.35;3.95;;;;;;;;;;488993;29;1227;-76
2023/06/18 00:13:12;;;;;;;6.18;4.40;;;;;;;;;;490413;29;1420;-75
2023/06/18 00:13:37;;;;;;;5.05;4.13;;;;;;;;;;490494;29;1212;-76
2023/06/18 00:14:02;;;;;;;6.13;4.20;;;;;;;;;;490509;29;1086;-75
2023/06/18 00:14:21;;;;;;;5.85;4.13;;;;;;;;;;491556;29;1517;-75
2023/06/18 00:14:37;;;;;;;5.18;4.10;;;;;;;;;;489223;29;1280;-76
2023/06/18 00:14:53;;;;;;;5.30;4.13;;;;;;;;;;491203;29;986;-75
2023/06/18 00:15:09;;;;;;;5.22;4.40;;;;;;;;;;492492;29;1199;-75
2023/06/18 00:15:32;;;;;;;5.97;4.30;;;;;;;;;;491586;29;1339;-75
2023/06/18 00:15:48;;;;;;;6.43;4.30;;;;;;;;;;491704;29;1295;-76
2023/06/18 00:16:06;;;;;;;5.75;4.15;;;;;;;;;;491404;29;1305;-76
2023/06/18 00:16:21;;;;;;;4.60;4.00;;;;;;;;;;493197;29;1326;-75
2023/06/18 00:16:37;;;;;;;6.18;4.20;;;;;;;;;;493465;29;1131;-75
2023/06/18 00:16:53;;;;;;;6.10;4.20;;;;;;;;;;492587;29;1330;-76
2023/06/18 00:17:09;;;;;;;4.63;4.10;;;;;;;;;;492582;29;1297;-76
2023/06/18 00:17:28;;;;;;;4.90;4.07;;;;;;;;;;490056;29;1251;-76
2023/06/18 00:17:44;;;;;;;4.88;4.40;;;;;;;;;;489456;29;2095;-75
2023/06/18 00:18:00;;;;;;;5.15;4.60;;;;;;;;;;487910;29;1401;-76
2023/06/18 00:18:15;;;;;;;5.93;4.20;;;;;;;;;;488093;29;1445;-75
2023/06/18 00:19:09;;;;;;;6.63;4.10;;;;;;;;;;490360;29;1563;-75
2023/06/18 00:19:31;;;;;;;5.20;4.32;;;;;;;;;;489640;29;1199;-76
2023/06/18 00:20:25;;;;;;;4.50;4.10;;;;;;;;;;489306;29;1995;-76
2023/06/18 00:21:22;;;;;;;5.85;4.50;;;;;;;;;;495174;29;1457;-75
2023/06/18 00:27:18;;;;;;;5.63;4.30;;;;;;;;;;480265;30;1847;-76
2023/06/18 00:28:40;;;;;;;5.50;4.57;;;;;;;;;;483638;29;1221;-76
2023/06/18 00:29:02;;;;;;;4.57;4.03;;;;;;;;;;482208;29;1469;-76
2023/06/18 00:29:49;;;;;;;6.07;4.30;;;;;;;;;;481047;30;960;-76
2023/06/18 00:30:14;;;;;;;6.32;4.40;;;;;;;;;;479897;30;1372;-76
2023/06/18 00:30:49;;;;;;;6.68;4.53;;;;;;;;;;481930;30;1435;-75
2023/06/18 00:31:26;;;;;;;5.47;4.20;;;;;;;;;;479300;30;1018;-76
2023/06/18 00:32:04;;;;;;;4.72;4.22;;;;;;;;;;480125;30;1344;-76
2023/06/18 00:32:20;;;;;;;5.03;4.47;;;;;;;;;;487406;29;1401;-76
2023/06/18 00:32:43;;;;;;;5.32;4.30;;;;;;;;;;485625;29;1429;-76
2023/06/18 00:33:38;;;;;;;6.28;4.40;;;;;;;;;;483239;29;1386;-76
2023/06/18 00:35:03;;;;;;;;;;;;;;;;;;;;;
2023/06/18 00:36:20;;;;;;;6.32;4.55;;;;;;;;;;478130;30;1065;-75
2023/06/18 00:36:43;;;;;;;5.53;4.15;;;;;;;;;;476747;30;1380;-76
2023/06/18 00:37:13;;;;;;;5.25;4.22;;;;;;;;;;475984;30;1199;-76
2023/06/18 00:37:29;;;;;;;6.13;4.57;;;;;;;;;;476962;30;1440;-77
2023/06/18 00:37:45;;;;;;;5.05;4.40;;;;;;;;;;476490;30;1125;-76
2023/06/18 00:38:03;;;;;;;5.07;4.30;;;;;;;;;;475204;30;1336;-76
2023/06/18 00:38:26;;;;;;;5.47;4.35;;;;;;;;;;472178;30;1468;-77
2023/06/18 00:38:46;;;;;;;6.20;4.50;;;;;;;;;;474845;30;1146;-77
2023/06/18 00:39:02;;;;;;;7.32;4.55;;;;;;;;;;475255;30;2050;-76
2023/06/18 00:39:18;;;;;;;5.43;4.10;;;;;;;;;;477504;30;1112;-76
2023/06/18 00:39:33;;;;;;;4.90;4.07;;;;;;;;;;472319;30;1150;-77
2023/06/18 00:39:49;;;;;;;5.10;4.60;;;;;;;;;;472741;30;1430;-76
2023/06/18 00:40:06;;;;;;;5.60;4.60;;;;;;;;;;475587;30;1081;-76
2023/06/18 00:40:21;;;;;;;5.70;4.40;;;;;;;;;;477955;30;1018;-77
2023/06/18 00:40:37;;;;;;;5.07;4.40;;;;;;;;;;478221;30;1280;-77
2023/06/18 00:40:53;;;;;;;4.80;4.30;;;;;;;;;;477777;30;1072;-76
2023/06/18 00:41:08;;;;;;;5.63;4.50;;;;;;;;;;476073;30;1336;-77
2023/06/18 00:41:27;;;;;;;5.32;4.50;;;;;;;;;;478691;30;1377;-77
2023/06/18 00:41:46;;;;;;;4.70;4.18;;;;;;;;;;478765;30;1366;-77
2023/06/18 00:42:02;;;;;;;4.57;4.18;;;;;;;;;;479034;30;1338;-76
2023/06/18 00:42:18;;;;;;;4.93;4.43;;;;;;;;;;479564;30;1374;-76
2023/06/18 00:42:33;;;;;;;5.05;4.55;;;;;;;;;;480684;30;1454;-77
2023/06/18 00:42:52;;;;;;;4.78;4.32;;;;;;;;;;480004;30;1246;-76
2023/06/18 00:43:08;;;;;;;4.88;4.25;;;;;;;;;;477906;30;1357;-76
2023/06/18 00:43:27;;;;;;;5.53;4.20;;;;;;;;;;479581;30;1322;-76
2023/06/18 00:43:43;;;;;;;4.70;4.20;;;;;;;;;;478937;30;1352;-76
2023/06/18 00:43:59;;;;;;;4.82;4.32;;;;;;;;;;479023;30;1525;-76
2023/06/18 00:44:15;;;;;;;6.00;4.40;;;;;;;;;;480574;30;1282;-77
2023/06/18 00:44:30;;;;;;;5.35;4.20;;;;;;;;;;480985;30;1217;-76
2023/06/18 00:44:46;;;;;;;5.32;4.22;;;;;;;;;;481270;30;1449;-76
2023/06/18 00:45:03;;;;;;;6.53;4.60;;;;;;;;;;479277;30;1981;-76
2023/06/18 00:45:20;;;;;;;6.85;4.50;;;;;;;;;;479097;30;1416;-76
2023/06/18 00:45:37;;;;;;;6.45;4.50;;;;;;;;;;478492;30;1381;-77
2023/06/18 00:45:59;;;;;;;5.20;4.47;;;;;;;;;;484905;29;1270;-76
2023/06/18 00:46:17;;;;;;;5.60;4.30;;;;;;;;;;488878;29;1263;-76
2023/06/18 00:46:35;;;;;;;4.65;4.18;;;;;;;;;;489727;29;1527;-77
2023/06/18 00:46:51;;;;;;;4.40;3.97;;;;;;;;;;492620;29;948;-76
2023/06/18 00:47:13;;;;;;;4.88;4.22;;;;;;;;;;493613;29;1426;-76
2023/06/18 00:47:29;;;;;;;5.15;4.40;;;;;;;;;;492384;29;1556;-76
2023/06/18 00:47:46;;;;;;;4.78;4.30;;;;;;;;;;492336;29;1323;-76
2023/06/18 00:48:02;;;;;;;4.85;4.30;;;;;;;;;;492258;29;961;-76
2023/06/18 00:48:18;;;;;;;6.03;4.40;;;;;;;;;;492182;29;1602;-76
2023/06/18 00:48:35;;;;;;;6.22;4.30;;;;;;;;;;491202;29;1362;-76
2023/06/18 00:48:52;;;;;;;5.95;4.40;;;;;;;;;;490628;29;1017;-76
2023/06/18 00:49:08;;;;;;;6.28;4.50;;;;;;;;;;489058;29;1430;-77
2023/06/18 00:49:23;;;;;;;6.10;4.40;;;;;;;;;;489806;29;1402;-76
2023/06/18 00:49:42;;;;;;;4.72;4.18;;;;;;;;;;491009;29;1338;-76
2023/06/18 00:49:58;;;;;;;5.57;4.18;;;;;;;;;;490709;29;1275;-77
2023/06/18 00:50:16;;;;;;;6.70;4.40;;;;;;;;;;491197;29;1296;-76
2023/06/18 00:50:32;;;;;;;5.82;4.43;;;;;;;;;;491403;29;1526;-76
2023/06/18 00:50:48;;;;;;;4.82;4.35;;;;;;;;;;494383;29;1323;-76
2023/06/18 00:51:04;;;;;;;5.72;4.57;;;;;;;;;;492864;29;1298;-77
2023/06/18 00:51:22;;;;;;;6.20;4.80;;;;;;;;;;492890;29;1192;-76
2023/06/18 00:51:38;;;;;;;5.88;4.63;;;;;;;;;;492832;29;1541;-77
2023/06/18 00:51:54;;;;;;;6.28;4.40;;;;;;;;;;493235;29;1157;-77
2023/06/18 00:52:13;;;;;;;6.55;4.40;;;;;;;;;;493454;29;1346;-77
2023/06/18 00:52:34;;;;;;;6.45;4.50;;;;;;;;;;492974;29;1442;-76
2023/06/18 00:52:51;;;;;;;5.72;4.50;;;;;;;;;;491048;29;1485;-76
2023/06/18 00:53:07;;;;;;;5.43;4.40;;;;;;;;;;490733;29;1184;-76
2023/06/18 00:53:25;;;;;;;6.72;4.30;;;;;;;;;;491207;29;1326;-77
2023/06/18 00:53:40;;;;;;;7.82;4.40;;;;;;;;;;492892;29;1296;-77
2023/06/18 00:53:56;;;;;;;6.63;4.40;;;;;;;;;;492956;29;1248;-76
2023/06/18 00:54:14;;;;;;;6.47;4.70;;;;;;;;;;493462;29;1176;-76
2023/06/18 00:54:32;;;;;;;7.28;4.72;;;;;;;;;;492147;29;897;-76
2023/06/18 00:54:49;;;;;;;6.22;4.43;;;;;;;;;;492223;29;1346;-77
2023/06/18 00:55:05;;;;;;;4.82;4.32;;;;;;;;;;491959;29;1018;-76
2023/06/18 00:55:21;;;;;;;6.25;4.38;;;;;;;;;;492925;29;1220;-76
2023/06/18 00:55:38;;;;;;;6.60;4.40;;;;;;;;;;488873;29;1488;-76
2023/06/18 00:55:56;;;;;;;4.65;4.22;;;;;;;;;;488997;29;1647;-76
2023/06/18 00:56:12;;;;;;;4.70;4.30;;;;;;;;;;490275;29;1279;-77
2023/06/18 00:56:29;;;;;;;5.13;4.50;;;;;;;;;;490205;29;1508;-77
2023/06/18 00:56:52;;;;;;;6.10;4.50;;;;;;;;;;489711;29;1310;-76
2023/06/18 00:57:08;;;;;;;5.68;4.45;;;;;;;;;;490294;29;1220;-76
2023/06/18 00:57:24;;;;;;;5.20;4.65;;;;;;;;;;492252;29;1240;-76
2023/06/18 00:57:41;;;;;;;5.65;4.78;;;;;;;;;;493956;29;1315;-76
2023/06/18 00:58:00;;;;;;;6.93;4.60;;;;;;;;;;493833;29;1122;-77
2023/06/18 00:58:17;;;;;;;5.07;4.30;;;;;;;;;;492630;29;1570;-76
2023/06/18 00:58:33;;;;;;;5.03;4.30;;;;;;;;;;493676;29;1315;-76
2023/06/18 00:58:48;;;;;;;5.20;4.32;;;;;;;;;;493535;29;1166;-77
2023/06/18 00:59:04;;;;;;;4.90;4.40;;;;;;;;;;493703;29;1070;-76
2023/06/18 00:59:23;;;;;;;4.95;4.45;;;;;;;;;;491180;29;1312;-76
2023/06/18 00:59:42;;;;;;;6.95;4.43;;;;;;;;;;487971;29;1418;-76
2023/06/18 00:59:57;;;;;;;7.82;4.50;;;;;;;;;;488465;29;1323;-76
2023/06/18 01:00:13;;;;;;;6.10;4.50;;;;;;;;;;490325;29;1286;-76
2023/06/18 01:00:32;;;;;;;5.57;4.40;;;;;;;;;;491253;29;1334;-76
2023/06/18 01:00:48;;;;;;;5.78;4.38;;;;;;;;;;496827;29;1480;-76
2023/06/18 01:01:08;;;;;;;5.78;4.40;;;;;;;;;;496399;29;1226;-76
2023/06/18 01:01:24;;;;;;;5.10;4.50;;;;;;;;;;497236;29;1049;-77
2023/06/18 01:01:39;;;;;;;5.35;4.55;;;;;;;;;;496107;29;1477;-76
2023/06/18 01:01:56;;;;;;;7.17;4.40;;;;;;;;;;494582;29;1306;-74
2023/06/18 01:02:12;;;;;;;6.78;4.30;;;;;;;;;;495205;29;1402;-74
2023/06/18 01:02:28;;;;;;;5.22;4.38;;;;;;;;;;497609;29;1460;-74
2023/06/18 01:02:45;;;;;;;6.22;4.20;;;;;;;;;;498261;29;1417;-77
2023/06/18 01:03:03;;;;;;;6.35;4.22;;;;;;;;;;500201;29;1404;-75
2023/06/18 01:03:20;;;;;;;5.50;4.15;;;;;;;;;;502134;29;1209;-75
2023/06/18 01:03:36;;;;;;;4.57;4.03;;;;;;;;;;502105;29;1122;-74
2023/06/18 01:03:52;;;;;;;5.35;4.30;;;;;;;;;;503457;28;1248;-75
2023/06/18 01:04:07;;;;;;;4.65;4.03;;;;;;;;;;501551;29;1368;-76
2023/06/18 01:04:26;;;;;;;4.40;4.00;;;;;;;;;;500546;29;1018;-75
2023/06/18 01:04:42;;;;;;;7.20;4.57;;;;;;;;;;502276;28;1649;-76
2023/06/18 01:04:59;;;;;;;6.10;4.60;;;;;;;;;;503241;29;1947;-75
2023/06/18 01:05:16;;;;;;;5.25;4.28;;;;;;;;;;501178;29;1018;-75
2023/06/18 01:05:32;;;;;;;5.43;4.20;;;;;;;;;;500566;29;1300;-76
2023/06/18 01:05:51;;;;;;;5.20;4.28;;;;;;;;;;500327;29;1282;-76
2023/06/18 01:06:12;;;;;;;5.40;4.10;;;;;;;;;;502862;28;1257;-76
2023/06/18 01:06:28;;;;;;;6.30;4.30;;;;;;;;;;501648;29;1273;-76
2023/06/18 01:06:44;;;;;;;5.72;4.28;;;;;;;;;;501994;28;1421;-76
2023/06/18 01:07:01;;;;;;;4.67;4.20;;;;;;;;;;499422;29;1265;-76
2023/06/18 01:07:17;;;;;;;5.80;4.38;;;;;;;;;;499480;29;1140;-76
2023/06/18 01:07:37;;;;;;;5.45;4.20;;;;;;;;;;500072;29;1419;-76
2023/06/18 01:07:53;;;;;;;4.65;4.20;;;;;;;;;;496183;29;1321;-76
2023/06/18 01:08:12;;;;;;;5.35;4.40;;;;;;;;;;497100;29;1028;-75
2023/06/18 01:08:33;;;;;;;6.25;4.47;;;;;;;;;;497999;29;1515;-75
2023/06/18 01:08:48;;;;;;;4.93;4.30;;;;;;;;;;499917;29;1003;-76
2023/06/18 01:09:04;;;;;;;4.93;4.43;;;;;;;;;;501121;29;1315;-75
2023/06/18 01:09:24;;;;;;;5.20;4.22;;;;;;;;;;501232;29;1288;-76
2023/06/18 01:09:41;;;;;;;6.00;4.20;;;;;;;;;;501201;29;969;-76
2023/06/18 01:09:57;;;;;;;5.13;3.90;;;;;;;;;;502660;29;1455;-76
2023/06/18 01:10:13;;;;;;;4.90;3.97;;;;;;;;;;502689;29;1275;-76
2023/06/18 01:10:29;;;;;;;5.70;4.30;;;;;;;;;;501220;29;1492;-76
2023/06/18 01:10:44;;;;;;;5.00;4.30;;;;;;;;;;501137;29;1275;-76
2023/06/18 01:11:03;;;;;;;5.27;4.43;;;;;;;;;;503234;28;1431;-76
2023/06/18 01:11:18;;;;;;;5.72;4.32;;;;;;;;;;503490;28;1644;-76
2023/06/18 01:11:40;;;;;;;5.97;4.13;;;;;;;;;;502638;28;1407;-76
2023/06/18 01:11:57;;;;;;;5.95;4.25;;;;;;;;;;501477;29;1490;-76
2023/06/18 01:12:13;;;;;;;5.97;4.28;;;;;;;;;;504682;28;1093;-76
2023/06/18 01:12:29;;;;;;;5.90;4.30;;;;;;;;;;511150;28;1246;-76
2023/06/18 01:12:48;;;;;;;5.60;4.20;;;;;;;;;;511211;28;1611;-76
2023/06/18 01:13:03;;;;;;;4.93;4.20;;;;;;;;;;510965;28;1481;-76
2023/06/18 01:13:20;;;;;;;4.63;4.22;;;;;;;;;;509258;28;1389;-76
2023/06/18 01:13:39;;;;;;;4.57;4.15;;;;;;;;;;510558;28;1050;-76
2023/06/18 01:13:55;;;;;;;4.65;4.20;;;;;;;;;;505568;28;1477;-76
2023/06/18 01:14:10;;;;;;;4.63;4.17;;;;;;;;;;505179;28;1252;-76
2023/06/18 01:14:27;;;;;;;4.70;4.10;;;;;;;;;;505222;28;1429;-76
2023/06/18 01:14:50;;;;;;;5.20;4.15;;;;;;;;;;506252;28;1597;-76
2023/06/18 01:15:09;;;;;;;4.50;4.10;;;;;;;;;;506927;28;944;-76
2023/06/18 01:15:28;;;;;;;4.30;3.90;;;;;;;;;;505057;28;1453;-76
2023/06/18 01:15:44;;;;;;;4.55;4.15;;;;;;;;;;505720;28;1241;-76
2023/06/18 01:16:05;;;;;;;4.90;4.30;;;;;;;;;;507542;28;988;-76
2023/06/18 01:16:24;;;;;;;5.82;4.05;;;;;;;;;;508813;28;1457;-76
2023/06/18 01:16:46;;;;;;;6.35;4.20;;;;;;;;;;511010;28;1335;-76
2023/06/18 01:17:03;;;;;;;5.50;4.18;;;;;;;;;;510076;28;1320;-76
2023/06/18 01:17:20;;;;;;;5.97;4.20;;;;;;;;;;510388;28;1402;-76
2023/06/18 01:17:37;;;;;;;5.75;4.30;;;;;;;;;;507254;28;1422;-76
2023/06/18 01:17:56;;;;;;;5.18;4.25;;;;;;;;;;510491;28;1310;-76
2023/06/18 01:18:12;;;;;;;5.03;4.00;;;;;;;;;;508518;28;1533;-76
2023/06/18 01:18:29;;;;;;;4.85;4.10;;;;;;;;;;509495;28;1345;-75
2023/06/18 01:18:46;;;;;;;4.80;4.30;;;;;;;;;;508852;28;1307;-76
2023/06/18 01:19:01;;;;;;;5.78;4.50;;;;;;;;;;510072;28;1491;-76
2023/06/18 01:19:27;;;;;;;5.85;4.38;;;;;;;;;;506570;28;1398;-76
2023/06/18 01:19:46;;;;;;;5.03;4.43;;;;;;;;;;506009;28;1468;-77
2023/06/18 01:20:10;;;;;;;5.13;4.22;;;;;;;;;;507422;28;1152;-76
2023/06/18 01:20:30;;;;;;;4.63;4.10;;;;;;;;;;507908;28;1441;-76
2023/06/18 01:20:46;;;;;;;4.70;4.00;;;;;;;;;;507206;28;1323;-75
2023/06/18 01:21:06;;;;;;;4.65;4.00;;;;;;;;;;508253;28;1268;-75
2023/06/18 01:21:26;;;;;;;5.10;4.18;;;;;;;;;;506278;28;1276;-76
2023/06/18 01:21:44;;;;;;;4.50;4.07;;;;;;;;;;506649;28;1386;-75
2023/06/18 01:22:06;;;;;;;5.10;4.07;;;;;;;;;;506973;28;1063;-75
2023/06/18 01:22:30;;;;;;;4.50;4.10;;;;;;;;;;505347;28;1344;-75
2023/06/18 01:23:03;;;;;;;6.22;4.40;;;;;;;;;;506631;28;1267;-75
2023/06/18 01:23:29;;;;;;;6.40;4.50;;;;;;;;;;509529;28;1728;-76
2023/06/18 01:24:18;;;;;;;4.65;4.15;;;;;;;;;;508408;28;1046;-75
2023/06/18 01:24:40;;;;;;;5.32;4.40;;;;;;;;;;508761;28;982;-75
2023/06/18 01:24:58;;;;;;;5.55;4.53;;;;;;;;;;507793;28;1911;-75
2023/06/18 01:25:15;;;;;;;5.88;4.60;;;;;;;;;;509200;28;1323;-76
2023/06/18 01:25:36;;;;;;;5.63;4.45;;;;;;;;;;509114;28;1517;-76
2023/06/18 01:25:53;;;;;;;5.88;4.30;;;;;;;;;;508062;28;1082;-75
2023/06/18 01:26:09;;;;;;;5.68;4.25;;;;;;;;;;509571;28;1616;-76
2023/06/18 01:26:26;;;;;;;5.15;4.40;;;;;;;;;;509327;28;1232;-76
2023/06/18 01:26:42;;;;;;;6.05;4.50;;;;;;;;;;508918;28;1287;-77
2023/06/18 01:26:59;;;;;;;6.22;4.53;;;;;;;;;;508904;28;1510;-76
2023/06/18 01:27:17;;;;;;;5.57;4.50;;;;;;;;;;508518;28;1057;-76
2023/06/18 01:27:40;;;;;;;4.78;4.20;;;;;;;;;;506899;28;1066;-75
2023/06/18 01:27:56;;;;;;;4.68;4.22;;;;;;;;;;510778;28;1247;-76
2023/06/18 01:28:12;;;;;;;5.25;4.40;;;;;;;;;;507623;28;1570;-76
2023/06/18 01:28:29;;;;;;;6.28;4.50;;;;;;;;;;509632;28;961;-76
2023/06/18 01:28:45;;;;;;;5.70;4.40;;;;;;;;;;510443;28;1082;-75
2023/06/18 01:29:01;;;;;;;5.05;4.47;;;;;;;;;;508578;28;1276;-75
2023/06/18 01:29:17;;;;;;;5.43;4.65;;;;;;;;;;508275;28;1462;-75
2023/06/18 01:29:34;;;;;;;5.60;4.68;;;;;;;;;;508971;28;1105;-77
2023/06/18 01:29:54;;;;;;;6.10;4.68;;;;;;;;;;508175;28;1438;-76
2023/06/18 01:30:11;;;;;;;6.65;4.50;;;;;;;;;;505439;28;1339;-75
2023/06/18 01:30:27;;;;;;;5.57;4.40;;;;;;;;;;505886;28;1267;-76
2023/06/18 01:30:43;;;;;;;5.38;4.70;;;;;;;;;;506385;28;1030;-76
2023/06/18 01:30:58;;;;;;;5.70;4.80;;;;;;;;;;508884;28;1315;-76
2023/06/18 01:31:14;;;;;;;6.43;4.50;;;;;;;;;;506770;28;1411;-75
2023/06/18 01:31:36;;;;;;;6.20;4.43;;;;;;;;;;506316;28;1426;-76
2023/06/18 01:31:52;;;;;;;5.13;4.63;;;;;;;;;;507699;28;1299;-75
2023/06/18 01:32:07;;;;;;;5.20;4.70;;;;;;;;;;507422;28;1272;-77
2023/06/18 01:32:23;;;;;;;5.10;4.70;;;;;;;;;;507764;28;986;-76
2023/06/18 01:32:39;;;;;;;4.97;4.57;;;;;;;;;;506849;28;1574;-76
2023/06/18 01:32:55;;;;;;;4.70;4.30;;;;;;;;;;505511;28;1308;-76
2023/06/18 01:33:12;;;;;;;4.70;4.20;;;;;;;;;;505753;28;1253;-77
2023/06/18 01:33:28;;;;;;;5.30;4.22;;;;;;;;;;503967;28;1493;-76
2023/06/18 01:33:44;;;;;;;4.85;4.20;;;;;;;;;;504728;28;1420;-75
2023/06/18 01:34:01;;;;;;;4.80;4.30;;;;;;;;;;505849;28;1298;-76
2023/06/18 01:34:17;;;;;;;4.75;4.30;;;;;;;;;;506321;28;1811;-76
2023/06/18 01:34:38;;;;;;;4.93;4.32;;;;;;;;;;507415;28;1293;-75
2023/06/18 01:34:57;;;;;;;5.95;4.47;;;;;;;;;;506091;28;1281;-76
2023/06/18 01:35:15;;;;;;;5.32;4.43;;;;;;;;;;508905;28;1467;-76
2023/06/18 01:35:30;;;;;;;5.50;4.55;;;;;;;;;;506279;28;1468;-77
2023/06/18 01:35:46;;;;;;;5.10;4.57;;;;;;;;;;507323;28;1626;-76
2023/06/18 01:36:02;;;;;;;5.10;4.60;;;;;;;;;;504577;28;1339;-76
2023/06/18 01:36:34;;;;;;;5.15;4.63;;;;;;;;;;505022;28;1015;-76
2023/06/18 01:37:10;;;;;;;5.25;4.47;;;;;;;;;;505466;28;942;-76
2023/06/18 01:37:40;;;;;;;5.18;4.57;;;;;;;;;;509248;28;1177;-76
2023/06/18 01:38:07;;;;;;;4.80;4.30;;;;;;;;;;510862;28;1426;-76
2023/06/18 01:38:43;;;;;;;5.93;4.55;;;;;;;;;;510450;28;1051;-76
2023/06/18 01:39:07;;;;;;;4.80;4.22;;;;;;;;;;511999;28;1241;-75
2023/06/18 01:39:41;;;;;;;5.85;4.55;;;;;;;;;;511095;28;1104;-76
2023/06/18 01:40:00;;;;;;;4.88;4.32;;;;;;;;;;513096;28;1500;-75
2023/06/18 01:40:34;;;;;;;5.05;4.50;;;;;;;;;;512228;28;1010;-76
2023/06/18 01:40:57;;;;;;;4.97;4.57;;;;;;;;;;511456;28;1382;-76
2023/06/18 01:41:24;;;;;;;4.97;4.47;;;;;;;;;;509914;28;1025;-76
2023/06/18 01:41:45;;;;;;;5.28;4.65;;;;;;;;;;510524;28;1101;-75
2023/06/18 01:42:18;;;;;;;5.15;4.28;;;;;;;;;;506642;28;1464;-76
2023/06/18 01:42:37;;;;;;;7.65;4.50;;;;;;;;;;508102;28;1602;-76
2023/06/18 01:43:04;;;;;;;5.75;4.45;;;;;;;;;;506197;28;1308;-76
2023/06/18 01:43:41;;;;;;;5.28;4.78;;;;;;;;;;506302;28;1300;-75
2023/06/18 01:44:03;;;;;;;5.47;4.68;;;;;;;;;;508219;28;1393;-76
2023/06/18 01:44:22;;;;;;;5.13;4.28;;;;;;;;;;508862;28;1133;-75
2023/06/18 01:44:40;;;;;;;6.32;4.47;;;;;;;;;;509214;28;1423;-75
2023/06/18 01:45:21;;;;;;;5.82;4.72;;;;;;;;;;509230;28;1928;-75
2023/06/18 01:45:42;;;;;;;4.88;4.38;;;;;;;;;;509025;28;1355;-75
2023/06/18 01:46:01;;;;;;;5.22;4.40;;;;;;;;;;508497;28;1482;-76
2023/06/18 01:46:23;;;;;;;5.00;4.60;;;;;;;;;;505677;28;1212;-76
2023/06/18 01:46:41;;;;;;;4.85;4.45;;;;;;;;;;507113;28;1312;-75
2023/06/18 01:46:58;;;;;;;5.15;4.43;;;;;;;;;;507466;28;1436;-75
2023/06/18 01:47:16;;;;;;;5.30;4.50;;;;;;;;;;507261;28;1407;-76
2023/06/18 01:47:33;;;;;;;5.78;4.40;;;;;;;;;;507541;28;1442;-75
2023/06/18 01:47:51;;;;;;;5.65;4.43;;;;;;;;;;507074;28;1485;-76
2023/06/18 01:48:07;;;;;;;5.25;4.40;;;;;;;;;;507887;28;1102;-75
2023/06/18 01:48:24;;;;;;;4.90;4.22;;;;;;;;;;506604;28;1441;-75
2023/06/18 01:49:04;;;;;;;4.72;4.32;;;;;;;;;;505103;28;1281;-76
2023/06/18 01:49:21;;;;;;;4.88;4.38;;;;;;;;;;507010;28;1440;-75
2023/06/18 01:49:38;;;;;;;5.22;4.50;;;;;;;;;;508275;28;1373;-76
2023/06/18 01:49:55;;;;;;;5.35;4.53;;;;;;;;;;510926;28;966;-76
2023/06/18 01:50:13;;;;;;;5.38;4.50;;;;;;;;;;510087;28;2017;-76
2023/06/18 01:50:32;;;;;;;5.88;4.50;;;;;;;;;;510560;28;1497;-76
2023/06/18 01:50:50;;;;;;;6.15;4.72;;;;;;;;;;513167;28;1487;-75
2023/06/18 01:51:07;;;;;;;5.28;4.55;;;;;;;;;;513947;28;1042;-76
2023/06/18 01:51:25;;;;;;;5.00;4.50;;;;;;;;;;513781;28;993;-76
2023/06/18 01:51:41;;;;;;;5.10;4.50;;;;;;;;;;511511;28;1411;-75
2023/06/18 01:52:01;;;;;;;5.22;4.47;;;;;;;;;;510280;28;1496;-76
2023/06/18 01:52:17;;;;;;;5.88;4.45;;;;;;;;;;511279;28;1252;-76
2023/06/18 01:52:40;;;;;;;7.03;4.45;;;;;;;;;;510050;28;1349;-75
2023/06/18 01:52:58;;;;;;;4.97;4.35;;;;;;;;;;508331;28;890;-76
2023/06/18 01:53:16;;;;;;;5.20;4.50;;;;;;;;;;507409;28;1391;-76
2023/06/18 01:53:35;;;;;;;5.00;4.40;;;;;;;;;;504240;28;1413;-76
2023/06/18 01:53:53;;;;;;;4.78;4.30;;;;;;;;;;510605;28;963;-76
2023/06/18 01:54:10;;;;;;;4.80;4.30;;;;;;;;;;509658;28;1521;-75
2023/06/18 01:54:27;;;;;;;6.00;4.67;;;;;;;;;;508226;28;1497;-76
2023/06/18 01:54:47;;;;;;;6.07;4.70;;;;;;;;;;510153;28;1487;-76
2023/06/18 01:55:03;;;;;;;5.00;4.50;;;;;;;;;;509510;28;1067;-76
2023/06/18 01:55:20;;;;;;;4.68;4.18;;;;;;;;;;510243;28;1140;-76
2023/06/18 01:55:38;;;;;;;5.18;4.28;;;;;;;;;;511023;28;1302;-75
2023/06/18 01:55:59;;;;;;;4.90;4.40;;;;;;;;;;510960;28;1153;-75
2023/06/18 01:56:17;;;;;;;5.55;4.32;;;;;;;;;;511888;28;1053;-76
2023/06/18 01:56:34;;;;;;;6.57;4.55;;;;;;;;;;511727;28;1171;-75
2023/06/18 01:56:51;;;;;;;5.57;4.30;;;;;;;;;;511733;28;1217;-76
2023/06/18 01:57:07;;;;;;;4.97;4.40;;;;;;;;;;508597;28;1312;-76
2023/06/18 01:57:26;;;;;;;5.25;4.40;;;;;;;;;;506246;28;1439;-76
2023/06/18 01:57:41;;;;;;;5.15;4.20;;;;;;;;;;505671;28;1507;-76
2023/06/18 01:57:57;;;;;;;5.45;4.30;;;;;;;;;;508016;28;1630;-76
2023/06/18 01:58:15;;;;;;;5.63;4.50;;;;;;;;;;506531;28;1475;-75
2023/06/18 01:58:33;;;;;;;4.90;4.40;;;;;;;;;;507510;28;1478;-76
2023/06/18 01:58:50;;;;;;;4.80;4.30;;;;;;;;;;505797;28;1296;-76
2023/06/18 01:59:06;;;;;;;4.90;4.40;;;;;;;;;;503732;28;1266;-76
2023/06/18 01:59:22;;;;;;;5.78;4.40;;;;;;;;;;505036;28;1047;-75
2023/06/18 01:59:41;;;;;;;6.30;4.40;;;;;;;;;;505303;28;1170;-75
2023/06/18 01:59:57;;;;;;;6.65;4.50;;;;;;;;;;506796;28;1343;-76
2023/06/18 02:00:13;;;;;;;6.47;4.43;;;;;;;;;;505400;28;1235;-76
2023/06/18 02:00:29;;;;;;;4.70;4.18;;;;;;;;;;503620;28;1522;-76
2023/06/18 02:00:45;;;;;;;4.70;4.10;;;;;;;;;;502056;28;1359;-76
2023/06/18 02:01:01;;;;;;;4.60;4.00;;;;;;;;;;502241;28;1107;-75
2023/06/18 02:01:16;;;;;;;5.32;4.10;;;;;;;;;;503832;28;1161;-75
2023/06/18 02:01:34;;;;;;;6.78;4.43;;;;;;;;;;504030;28;1166;-75
2023/06/18 02:01:50;;;;;;;5.55;4.43;;;;;;;;;;505292;28;1325;-76
2023/06/18 02:02:05;;;;;;;5.00;4.50;;;;;;;;;;508814;28;1289;-77
2023/06/18 02:02:21;;;;;;;5.85;4.53;;;;;;;;;;509933;28;1465;-76
2023/06/18 02:02:37;;;;;;;5.83;4.40;;;;;;;;;;509147;28;1256;-76
2023/06/18 02:02:52;;;;;;;5.22;4.38;;;;;;;;;;508786;28;1004;-76
2023/06/18 02:03:08;;;;;;;5.28;4.57;;;;;;;;;;505120;28;1503;-76
2023/06/18 02:03:24;;;;;;;4.97;4.47;;;;;;;;;;503603;28;1436;-75
2023/06/18 02:03:40;;;;;;;4.63;4.03;;;;;;;;;;504310;28;1046;-76
2023/06/18 02:03:57;;;;;;;4.88;4.28;;;;;;;;;;505730;28;1520;-76
2023/06/18 02:04:12;;;;;;;5.10;4.53;;;;;;;;;;508772;28;1360;-76
2023/06/18 02:04:28;;;;;;;5.53;4.93;;;;;;;;;;506475;28;1358;-76
2023/06/18 02:04:44;;;;;;;5.57;4.97;;;;;;;;;;508040;28;1199;-76
2023/06/18 02:04:59;;;;;;;5.32;4.50;;;;;;;;;;508273;28;1957;-76
2023/06/18 02:05:15;;;;;;;5.40;4.40;;;;;;;;;;508786;28;1061;-76
2023/06/18 02:05:31;;;;;;;5.50;4.60;;;;;;;;;;507971;28;1322;-75
2023/06/18 02:05:47;;;;;;;6.00;4.37;;;;;;;;;;507099;28;1313;-76
2023/06/18 02:06:02;;;;;;;5.30;4.20;;;;;;;;;;506237;28;1382;-76
2023/06/18 02:06:18;;;;;;;4.80;4.25;;;;;;;;;;505719;28;1552;-76
2023/06/18 02:06:33;;;;;;;6.63;4.47;;;;;;;;;;505943;28;1758;-75
2023/06/18 02:06:49;;;;;;;6.45;4.32;;;;;;;;;;506305;28;1240;-76
2023/06/18 02:07:05;;;;;;;5.03;4.40;;;;;;;;;;505671;28;1043;-77
2023/06/18 02:07:20;;;;;;;6.20;4.80;;;;;;;;;;507123;28;1024;-75
2023/06/18 02:07:36;;;;;;;7.18;4.72;;;;;;;;;;506554;28;1268;-76
2023/06/18 02:07:51;;;;;;;5.87;4.50;;;;;;;;;;508909;28;1334;-75
2023/06/18 02:08:07;;;;;;;5.00;4.50;;;;;;;;;;509601;28;1334;-76
2023/06/18 02:08:23;;;;;;;5.33;4.63;;;;;;;;;;508586;28;1270;-76
2023/06/18 02:08:39;;;;;;;5.57;4.50;;;;;;;;;;508699;28;939;-76
2023/06/18 02:08:54;;;;;;;5.00;4.50;;;;;;;;;;510276;28;1392;-76
2023/06/18 02:09:10;;;;;;;5.15;4.65;;;;;;;;;;508715;28;1418;-76
2023/06/18 02:09:26;;;;;;;5.10;4.60;;;;;;;;;;506851;28;1489;-76
2023/06/18 02:09:41;;;;;;;4.93;4.43;;;;;;;;;;507628;28;1154;-76
2023/06/18 02:09:57;;;;;;;5.65;4.65;;;;;;;;;;508254;28;1255;-76
2023/06/18 02:10:13;;;;;;;6.37;4.63;;;;;;;;;;506910;28;1366;-76
2023/06/18 02:10:28;;;;;;;6.50;4.40;;;;;;;;;;508317;28;1228;-76
2023/06/18 02:10:44;;;;;;;5.87;4.67;;;;;;;;;;508992;28;1342;-76
2023/06/18 02:11:00;;;;;;;5.20;4.70;;;;;;;;;;508943;28;1450;-76
2023/06/18 02:11:15;;;;;;;4.68;4.28;;;;;;;;;;508514;28;1306;-76
2023/06/18 02:11:31;;;;;;;4.45;4.05;;;;;;;;;;507437;28;1223;-76
2023/06/18 02:11:47;;;;;;;5.33;4.37;;;;;;;;;;507836;28;967;-76
2023/06/18 02:12:02;;;;;;;6.38;4.55;;;;;;;;;;507696;28;1339;-77
2023/06/18 02:12:18;;;;;;;6.53;4.70;;;;;;;;;;506287;28;1417;-76
2023/06/18 02:12:33;;;;;;;6.60;4.73;;;;;;;;;;505602;28;1136;-76
2023/06/18 02:12:49;;;;;;;7.40;4.55;;;;;;;;;;508005;28;1272;-76
2023/06/18 02:13:05;;;;;;;7.43;4.23;;;;;;;;;;506394;28;1362;-76
2023/06/18 02:13:20;;;;;;;6.53;4.35;;;;;;;;;;505303;28;1272;-76
2023/06/18 02:13:36;;;;;;;5.30;4.50;;;;;;;;;;506444;28;1347;-76
2023/06/18 02:13:52;;;;;;;5.10;4.50;;;;;;;;;;507173;28;959;-76
2023/06/18 02:14:07;;;;;;;5.30;4.55;;;;;;;;;;509184;28;1322;-76
2023/06/18 02:14:23;;;;;;;5.73;4.67;;;;;;;;;;506407;28;1113;-76